Time;durP1;ratioP1;P1;durP2;ratioP2;P2;SDS_P1;SDS_P2;PMS_P1;PMS_P2;Temp;Humidity;BMP_temperature;BMP_pressure;BME280_temperature;BME280_humidity;BME280_pressure;Samples;Min_cycle;Max_cycle;Signal;HPM_P1;HPM_P2
2023/01/18 00:00:29;;;;;;;41.90;18.93;;;;;;;;;;4923390;28;20045;-67
2023/01/18 00:02:55;;;;;;;39.67;19.50;;;;;;;;;;4940719;28;20043;-67
2023/01/18 00:05:21;;;;;;;43.27;19.07;;;;;;;;;;4940847;28;20035;-67
2023/01/18 00:07:48;;;;;;;40.23;17.37;;;;;;;;;;4956661;28;20035;-68
2023/01/18 00:10:14;;;;;;;37.60;18.37;;;;;;;;;;4940694;28;20730;-66
2023/01/18 00:12:39;;;;;;;44.03;20.23;;;;;;;;;;4940255;28;20593;-67
2023/01/18 00:15:06;;;;;;;41.13;19.47;;;;;;;;;;4925157;28;20082;-67
2023/01/18 00:17:32;;;;;;;43.47;19.00;;;;;;;;;;4956432;28;20128;-68
2023/01/18 00:19:57;;;;;;;48.90;21.63;;;;;;;;;;4924821;28;20077;-67
2023/01/18 00:22:23;;;;;;;39.47;18.77;;;;;;;;;;4941340;28;20428;-67
2023/01/18 00:24:49;;;;;;;45.37;20.07;;;;;;;;;;4925304;28;20050;-67
2023/01/18 00:27:14;;;;;;;47.07;19.50;;;;;;;;;;4956924;28;20813;-67
2023/01/18 00:29:40;;;;;;;43.37;20.57;;;;;;;;;;4940736;28;20031;-68
2023/01/18 00:32:06;;;;;;;50.80;20.20;;;;;;;;;;4924448;28;20485;-68
2023/01/18 00:34:32;;;;;;;50.70;21.27;;;;;;;;;;4924739;28;20376;-68
2023/01/18 00:36:57;;;;;;;46.97;20.50;;;;;;;;;;4940066;28;20042;-67
2023/01/18 00:39:23;;;;;;;44.33;19.97;;;;;;;;;;4924611;28;20035;-66
2023/01/18 00:44:33;;;;;;;45.53;20.00;;;;;;;;;;4956313;28;20047;-66
2023/01/18 00:46:58;;;;;;;41.10;19.17;;;;;;;;;;4940569;28;20100;-67
2023/01/18 00:49:24;;;;;;;39.60;19.67;;;;;;;;;;4924893;28;20163;-66
2023/01/18 00:51:51;;;;;;;41.63;18.97;;;;;;;;;;4973129;28;20420;-66
2023/01/18 00:54:16;;;;;;;48.50;19.67;;;;;;;;;;4924467;28;20038;-66
2023/01/18 00:56:42;;;;;;;45.40;17.70;;;;;;;;;;4940102;28;20043;-66
2023/01/18 00:59:08;;;;;;;46.20;19.63;;;;;;;;;;4924065;28;20477;-66
2023/01/18 01:01:33;;;;;;;41.67;19.17;;;;;;;;;;4939780;28;20039;-66
2023/01/18 01:06:43;;;;;;;42.07;19.83;;;;;;;;;;4956447;28;20039;-66
2023/01/18 01:09:29;;;;;;;44.13;20.80;;;;;;;;;;4923863;28;20519;-66
2023/01/18 01:28:24;;;;;;;37.70;18.13;;;;;;;;;;4926934;28;20112;-66
2023/01/18 01:30:49;;;;;;;37.33;16.90;;;;;;;;;;4955483;28;20469;-66
2023/01/18 01:33:16;;;;;;;41.30;18.70;;;;;;;;;;4954352;28;20043;-66
2023/01/18 01:35:41;;;;;;;34.93;17.60;;;;;;;;;;4953678;28;20153;-66
2023/01/18 01:38:07;;;;;;;37.60;18.80;;;;;;;;;;4922033;28;20125;-66
2023/01/18 01:40:32;;;;;;;42.73;18.60;;;;;;;;;;4954348;28;20049;-67
2023/01/18 01:42:58;;;;;;;39.43;19.03;;;;;;;;;;4922136;28;20327;-66
2023/01/18 01:45:25;;;;;;;42.57;18.63;;;;;;;;;;4922106;28;20073;-66
2023/01/18 01:47:51;;;;;;;38.00;18.10;;;;;;;;;;4953892;28;20039;-66
2023/01/18 01:50:17;;;;;;;36.90;18.40;;;;;;;;;;4939777;28;20097;-67
2023/01/18 01:52:44;;;;;;;42.17;18.40;;;;;;;;;;4923903;28;20122;-66
2023/01/18 01:55:13;;;;;;;32.83;14.90;;;;;;;;;;4972638;28;20062;-65
2023/01/18 01:57:48;;;;;;;39.83;18.23;;;;;;;;;;4926876;28;20501;-66
2023/01/18 02:00:18;;;;;;;40.10;17.40;;;;;;;;;;4923832;28;20081;-66
2023/01/18 02:02:45;;;;;;;36.33;17.03;;;;;;;;;;4955664;28;20080;-66
2023/01/18 02:05:12;;;;;;;36.83;18.17;;;;;;;;;;4939817;28;20062;-66
2023/01/18 02:07:38;;;;;;;36.47;16.47;;;;;;;;;;4923896;28;20034;-66
2023/01/18 02:10:04;;;;;;;34.67;17.27;;;;;;;;;;4939662;28;20438;-66
2023/01/18 02:12:31;;;;;;;33.43;16.47;;;;;;;;;;4939845;28;20038;-67
2023/01/18 02:14:57;;;;;;;42.43;17.60;;;;;;;;;;4956081;28;20034;-66
2023/01/18 02:17:35;;;;;;;34.60;17.87;;;;;;;;;;4939787;28;20215;-67
2023/01/18 02:20:05;;;;;;;35.80;17.30;;;;;;;;;;4956638;28;20042;-66
2023/01/18 02:22:31;;;;;;;31.88;16.38;;;;;;;;;;4941777;28;20043;-66
2023/01/18 02:25:29;;;;;;;30.93;15.80;;;;;;;;;;4940984;28;20047;-66
2023/01/18 02:28:10;;;;;;;30.93;14.67;;;;;;;;;;4895082;28;20082;-66
2023/01/18 02:30:39;;;;;;;34.67;16.10;;;;;;;;;;4942870;28;20069;-65
2023/01/18 02:33:07;;;;;;;30.03;15.70;;;;;;;;;;4927160;28;20034;-65
2023/01/18 02:35:39;;;;;;;38.23;16.40;;;;;;;;;;4942973;28;20031;-65
2023/01/18 02:38:11;;;;;;;41.10;17.27;;;;;;;;;;4943084;28;20042;-66
2023/01/18 02:40:56;;;;;;;33.17;15.83;;;;;;;;;;4942972;28;20068;-66
2023/01/18 02:48:54;;;;;;;32.43;16.43;;;;;;;;;;4942612;28;20393;-65
2023/01/18 02:51:20;;;;;;;38.60;16.57;;;;;;;;;;4958684;28;20474;-66
2023/01/18 02:53:46;;;;;;;31.87;15.70;;;;;;;;;;4926201;28;20101;-66
2023/01/18 02:56:19;;;;;;;31.07;15.13;;;;;;;;;;4942655;28;20093;-66
2023/01/18 02:58:46;;;;;;;31.33;15.70;;;;;;;;;;4955098;29;20083;-66
2023/01/18 03:01:21;;;;;;;29.17;14.90;;;;;;;;;;4955032;29;20046;-66
2023/01/18 03:03:49;;;;;;;29.23;13.37;;;;;;;;;;4942173;28;20074;-65
2023/01/18 03:06:14;;;;;;;26.43;13.77;;;;;;;;;;4926490;28;20083;-65
2023/01/18 03:08:47;;;;;;;29.53;14.60;;;;;;;;;;4926443;28;20062;-66
2023/01/18 03:11:26;;;;;;;27.57;14.63;;;;;;;;;;4926562;28;20030;-66
2023/01/18 03:13:52;;;;;;;25.87;13.37;;;;;;;;;;4975225;28;20057;-66
2023/01/18 03:16:21;;;;;;;29.60;13.90;;;;;;;;;;4942236;28;20034;-66
2023/01/18 03:18:59;;;;;;;29.20;14.30;;;;;;;;;;4942157;28;20549;-66
2023/01/18 03:21:32;;;;;;;26.13;13.80;;;;;;;;;;4942194;28;20039;-66
2023/01/18 03:24:00;;;;;;;29.90;13.27;;;;;;;;;;4941859;28;20058;-66
2023/01/18 03:26:27;;;;;;;24.67;13.63;;;;;;;;;;4941970;28;20038;-65
2023/01/18 03:34:54;;;;;;;23.23;12.57;;;;;;;;;;4956238;28;20089;-66
2023/01/18 03:37:24;;;;;;;25.03;13.17;;;;;;;;;;4954748;28;20043;-65
2023/01/18 03:39:53;;;;;;;25.90;14.13;;;;;;;;;;4954768;28;20500;-66
2023/01/18 03:42:20;;;;;;;25.70;11.93;;;;;;;;;;4955606;28;20112;-66
2023/01/18 03:45:06;;;;;;;24.30;12.17;;;;;;;;;;4955293;28;20047;-66
2023/01/18 03:47:32;;;;;;;27.70;12.87;;;;;;;;;;4961691;28;20044;-66
2023/01/18 03:49:57;;;;;;;24.93;13.30;;;;;;;;;;4955734;28;20508;-66
2023/01/18 03:52:24;;;;;;;26.67;13.07;;;;;;;;;;4957213;28;20213;-66
2023/01/18 03:54:55;;;;;;;24.77;13.33;;;;;;;;;;4957286;28;20035;-66
2023/01/18 03:57:37;;;;;;;21.55;11.45;;;;;;;;;;4957238;28;20189;-66
2023/01/18 04:00:04;;;;;;;21.83;12.27;;;;;;;;;;4944735;28;20192;-66
2023/01/18 04:02:38;;;;;;;26.63;13.00;;;;;;;;;;4976223;28;20385;-66
2023/01/18 04:05:04;;;;;;;27.83;12.73;;;;;;;;;;4976841;28;20046;-67
2023/01/18 04:07:31;;;;;;;21.97;12.27;;;;;;;;;;4960451;28;20042;-66
2023/01/18 04:10:00;;;;;;;25.17;13.03;;;;;;;;;;4960417;28;20061;-66
2023/01/18 04:12:26;;;;;;;33.40;13.40;;;;;;;;;;4944161;28;20034;-66
2023/01/18 04:14:51;;;;;;;21.17;11.77;;;;;;;;;;4976364;28;20064;-66
2023/01/18 04:17:19;;;;;;;22.10;12.63;;;;;;;;;;4960150;28;20571;-66
2023/01/18 04:19:45;;;;;;;26.97;12.77;;;;;;;;;;4960022;28;20034;-66
2023/01/18 04:22:11;;;;;;;29.53;12.87;;;;;;;;;;4943866;28;20038;-66
2023/01/18 04:24:37;;;;;;;22.47;11.60;;;;;;;;;;4960202;28;20042;-66
2023/01/18 04:27:03;;;;;;;21.20;12.17;;;;;;;;;;4976242;28;20137;-66
2023/01/18 04:29:28;;;;;;;29.37;12.67;;;;;;;;;;4959854;28;20042;-66
2023/01/18 04:31:54;;;;;;;26.80;12.30;;;;;;;;;;4959697;28;20030;-66
2023/01/18 04:34:22;;;;;;;24.83;12.33;;;;;;;;;;4959768;28;20042;-66
2023/01/18 04:36:52;;;;;;;21.13;12.80;;;;;;;;;;4976042;28;20393;-66
2023/01/18 04:39:17;;;;;;;23.20;12.50;;;;;;;;;;4959906;28;20544;-66
2023/01/18 04:41:43;;;;;;;22.20;11.43;;;;;;;;;;4992896;28;20050;-66
2023/01/18 04:44:09;;;;;;;21.50;11.83;;;;;;;;;;4976047;28;20069;-66
2023/01/18 04:46:37;;;;;;;25.20;12.30;;;;;;;;;;4959849;28;20494;-66
2023/01/18 04:49:05;;;;;;;22.77;12.63;;;;;;;;;;4975625;28;20069;-66
2023/01/18 04:51:30;;;;;;;27.10;13.67;;;;;;;;;;4943488;28;20035;-66
2023/01/18 04:53:57;;;;;;;24.23;11.93;;;;;;;;;;4975795;28;20061;-70
2023/01/18 04:56:31;;;;;;;25.33;12.77;;;;;;;;;;4959700;28;20038;-70
2023/01/18 04:59:02;;;;;;;22.70;12.20;;;;;;;;;;4992732;28;20058;-69
2023/01/18 05:01:28;;;;;;;25.13;13.60;;;;;;;;;;4951347;28;20026;-64
2023/01/18 05:03:54;;;;;;;20.73;12.13;;;;;;;;;;4969314;28;20049;-64
2023/01/18 05:06:20;;;;;;;25.67;13.47;;;;;;;;;;4920176;28;20508;-64
2023/01/18 05:08:46;;;;;;;22.17;12.83;;;;;;;;;;4923202;28;20074;-64
2023/01/18 05:11:12;;;;;;;28.30;13.03;;;;;;;;;;4938868;28;20496;-65
2023/01/18 05:13:39;;;;;;;27.50;13.27;;;;;;;;;;4923178;28;20535;-64
2023/01/18 05:16:05;;;;;;;29.47;13.60;;;;;;;;;;4923358;28;20058;-63
2023/01/18 05:18:31;;;;;;;23.70;12.63;;;;;;;;;;4955239;28;20050;-64
2023/01/18 05:20:56;;;;;;;27.83;13.00;;;;;;;;;;4923286;28;20392;-66
2023/01/18 05:23:22;;;;;;;24.43;11.70;;;;;;;;;;4923271;28;20039;-67
2023/01/18 05:25:52;;;;;;;22.70;12.60;;;;;;;;;;4923492;28;20031;-65
2023/01/18 05:28:18;;;;;;;27.77;12.70;;;;;;;;;;4971737;28;20039;-67
2023/01/18 05:30:48;;;;;;;26.70;13.23;;;;;;;;;;4932046;28;20047;-67
2023/01/18 05:33:13;;;;;;;21.87;12.53;;;;;;;;;;4938613;28;20035;-66
2023/01/18 05:35:39;;;;;;;27.87;13.27;;;;;;;;;;4939034;28;20045;-68
2023/01/18 05:38:04;;;;;;;25.60;13.67;;;;;;;;;;4939047;28;20049;-68
2023/01/18 05:40:32;;;;;;;24.50;13.10;;;;;;;;;;4927537;28;20031;-65
2023/01/18 05:43:03;;;;;;;26.57;13.13;;;;;;;;;;4957269;28;20095;-69
2023/01/18 05:45:29;;;;;;;29.90;12.60;;;;;;;;;;4938496;28;20047;-68
2023/01/18 05:47:55;;;;;;;22.60;12.60;;;;;;;;;;4938780;28;20045;-69
2023/01/18 05:50:20;;;;;;;26.50;13.43;;;;;;;;;;4954894;28;20039;-68
2023/01/18 05:52:46;;;;;;;24.47;12.80;;;;;;;;;;4925525;28;20125;-67
2023/01/18 05:55:12;;;;;;;27.57;13.93;;;;;;;;;;4957299;28;20070;-70
2023/01/18 05:57:39;;;;;;;27.97;12.80;;;;;;;;;;4954793;28;20062;-68
2023/01/18 06:00:05;;;;;;;27.63;12.73;;;;;;;;;;4954542;28;20034;-69
2023/01/18 06:02:37;;;;;;;33.13;13.27;;;;;;;;;;4974638;28;20039;-69
2023/01/18 06:05:03;;;;;;;29.03;13.10;;;;;;;;;;4974669;28;20055;-68
2023/01/18 06:07:28;;;;;;;30.00;13.03;;;;;;;;;;4974590;28;20502;-68
2023/01/18 06:09:54;;;;;;;21.83;12.33;;;;;;;;;;4975327;28;20490;-68
2023/01/18 06:12:20;;;;;;;22.93;11.83;;;;;;;;;;4973759;28;20046;-68
2023/01/18 06:14:46;;;;;;;25.17;12.77;;;;;;;;;;4958241;28;20051;-68
2023/01/18 06:17:12;;;;;;;24.50;13.10;;;;;;;;;;4942321;28;20040;-73
2023/01/18 06:19:37;;;;;;;28.50;12.63;;;;;;;;;;4958357;28;20433;-69
2023/01/18 06:22:03;;;;;;;26.43;13.10;;;;;;;;;;4942170;28;20050;-68
2023/01/18 06:24:29;;;;;;;23.93;12.83;;;;;;;;;;4958112;28;20137;-68
2023/01/18 06:26:54;;;;;;;25.40;12.40;;;;;;;;;;4942046;28;20069;-68
2023/01/18 06:29:20;;;;;;;23.83;13.27;;;;;;;;;;4957757;28;20037;-69
2023/01/18 06:31:45;;;;;;;24.73;12.30;;;;;;;;;;4941329;28;20050;-71
2023/01/18 06:34:12;;;;;;;26.10;12.70;;;;;;;;;;4958437;28;20381;-71
2023/01/18 06:36:38;;;;;;;32.47;13.23;;;;;;;;;;4940767;28;20042;-69
2023/01/18 06:39:04;;;;;;;28.43;12.97;;;;;;;;;;4956834;28;20034;-69
2023/01/18 06:41:30;;;;;;;22.03;12.47;;;;;;;;;;4940710;28;20042;-68
2023/01/18 06:43:55;;;;;;;23.37;12.77;;;;;;;;;;4958039;28;20113;-68
2023/01/18 06:46:21;;;;;;;26.23;12.53;;;;;;;;;;4942322;28;20035;-68
2023/01/18 06:48:46;;;;;;;23.00;12.10;;;;;;;;;;4974453;28;20042;-70
2023/01/18 06:51:12;;;;;;;26.43;11.87;;;;;;;;;;4942463;28;20465;-68
2023/01/18 06:53:38;;;;;;;24.83;13.07;;;;;;;;;;4957971;28;20042;-69
2023/01/18 06:56:04;;;;;;;21.43;12.13;;;;;;;;;;4957944;28;20041;-69
2023/01/18 06:58:31;;;;;;;23.10;11.60;;;;;;;;;;4961497;28;20054;-69
2023/01/18 07:00:58;;;;;;;26.57;12.57;;;;;;;;;;4960828;28;20601;-69
2023/01/18 07:03:24;;;;;;;21.97;11.50;;;;;;;;;;4944778;28;20030;-69
2023/01/18 07:05:57;;;;;;;24.97;12.03;;;;;;;;;;4961045;28;20034;-68
2023/01/18 07:08:23;;;;;;;28.43;13.33;;;;;;;;;;4960666;28;20049;-68
2023/01/18 07:10:51;;;;;;;21.20;11.80;;;;;;;;;;4961146;28;20436;-69
2023/01/18 07:13:17;;;;;;;23.87;11.63;;;;;;;;;;4959428;28;20558;-69
2023/01/18 07:15:44;;;;;;;22.07;12.10;;;;;;;;;;4961142;28;20125;-69
2023/01/18 07:18:14;;;;;;;27.10;12.80;;;;;;;;;;4962098;28;20033;-68
2023/01/18 07:20:39;;;;;;;25.37;11.97;;;;;;;;;;4961908;28;20469;-69
2023/01/18 07:23:05;;;;;;;23.63;12.27;;;;;;;;;;4977044;28;20044;-69
2023/01/18 07:25:30;;;;;;;26.87;12.50;;;;;;;;;;4960604;28;20473;-68
2023/01/18 07:27:56;;;;;;;22.77;11.90;;;;;;;;;;4944563;28;20074;-68
2023/01/18 07:30:22;;;;;;;25.87;12.63;;;;;;;;;;4960344;28;20061;-68
2023/01/18 07:32:49;;;;;;;23.53;12.27;;;;;;;;;;4976475;28;20038;-70
2023/01/18 07:35:16;;;;;;;26.87;13.13;;;;;;;;;;4976052;28;20338;-71
2023/01/18 07:37:41;;;;;;;25.93;12.50;;;;;;;;;;4960294;28;20042;-69
2023/01/18 07:40:09;;;;;;;22.50;12.17;;;;;;;;;;4976275;28;20436;-71
2023/01/18 07:42:35;;;;;;;25.47;12.20;;;;;;;;;;4976489;28;20031;-69
2023/01/18 07:45:00;;;;;;;29.93;12.97;;;;;;;;;;4960139;28;20046;-70
2023/01/18 07:47:26;;;;;;;24.73;12.30;;;;;;;;;;4976143;28;20534;-68
2023/01/18 07:50:00;;;;;;;23.90;12.60;;;;;;;;;;4939107;28;20034;-70
2023/01/18 07:52:30;;;;;;;25.43;11.30;;;;;;;;;;4938906;28;20031;-71
2023/01/18 07:54:56;;;;;;;24.67;12.70;;;;;;;;;;4923434;28;20043;-72
2023/01/18 07:57:21;;;;;;;29.43;13.23;;;;;;;;;;4922973;28;20051;-70
2023/01/18 07:59:47;;;;;;;27.23;12.73;;;;;;;;;;4969433;28;20409;-69
2023/01/18 08:02:13;;;;;;;23.80;12.77;;;;;;;;;;4923251;28;20039;-69
2023/01/18 08:04:40;;;;;;;26.57;12.17;;;;;;;;;;4954385;28;20430;-69
2023/01/18 08:07:07;;;;;;;25.70;12.13;;;;;;;;;;4954987;28;20046;-71
2023/01/18 08:09:32;;;;;;;25.43;11.90;;;;;;;;;;4938058;28;20401;-69
2023/01/18 08:11:58;;;;;;;24.00;12.13;;;;;;;;;;4919182;29;20035;-69
2023/01/18 08:14:24;;;;;;;23.03;12.07;;;;;;;;;;4935538;29;20640;-68
2023/01/18 08:16:51;;;;;;;28.00;12.53;;;;;;;;;;4964601;28;20183;-69
2023/01/18 08:19:16;;;;;;;26.03;12.47;;;;;;;;;;4971483;28;20505;-69
2023/01/18 08:21:42;;;;;;;28.70;13.63;;;;;;;;;;4938847;28;20063;-68
2023/01/18 08:24:08;;;;;;;23.47;12.10;;;;;;;;;;4919860;29;20039;-68
2023/01/18 08:26:33;;;;;;;27.40;12.63;;;;;;;;;;4970264;28;20038;-68
2023/01/18 08:29:00;;;;;;;29.83;12.53;;;;;;;;;;4939217;28;20387;-68
2023/01/18 08:31:26;;;;;;;23.43;11.60;;;;;;;;;;4924218;28;20057;-69
2023/01/18 08:33:51;;;;;;;23.37;12.63;;;;;;;;;;4938839;28;20042;-70
2023/01/18 08:36:18;;;;;;;24.90;12.37;;;;;;;;;;4938794;28;20030;-69
2023/01/18 08:38:50;;;;;;;27.87;12.90;;;;;;;;;;4970925;28;20066;-69
2023/01/18 08:41:17;;;;;;;21.67;11.57;;;;;;;;;;4936967;28;20039;-69
2023/01/18 08:43:44;;;;;;;27.87;13.67;;;;;;;;;;4965462;28;20113;-67
2023/01/18 08:46:09;;;;;;;28.90;12.97;;;;;;;;;;4937873;28;20038;-67
2023/01/18 08:48:35;;;;;;;25.70;12.63;;;;;;;;;;4917947;28;20095;-68
2023/01/18 08:51:01;;;;;;;32.63;13.37;;;;;;;;;;4954141;28;20048;-71
2023/01/18 08:53:28;;;;;;;26.90;13.03;;;;;;;;;;4938103;28;20038;-69
2023/01/18 08:55:54;;;;;;;27.47;12.40;;;;;;;;;;4937953;28;20054;-69
2023/01/18 08:58:20;;;;;;;31.23;12.27;;;;;;;;;;4937429;28;20405;-70
2023/01/18 09:00:49;;;;;;;25.87;13.23;;;;;;;;;;4949111;28;20507;-69
2023/01/18 09:03:21;;;;;;;27.40;12.33;;;;;;;;;;4936480;28;20129;-70
2023/01/18 09:05:46;;;;;;;26.77;12.57;;;;;;;;;;4922469;28;20108;-69
2023/01/18 09:08:12;;;;;;;32.60;12.70;;;;;;;;;;4938131;28;20038;-69
2023/01/18 09:10:38;;;;;;;25.57;12.60;;;;;;;;;;4947496;28;20492;-69
2023/01/18 09:13:05;;;;;;;29.17;12.00;;;;;;;;;;4949603;28;20470;-70
2023/01/18 09:15:31;;;;;;;23.17;11.77;;;;;;;;;;4953332;28;20376;-70
2023/01/18 09:17:57;;;;;;;24.77;12.70;;;;;;;;;;4903549;29;20122;-68
2023/01/18 09:20:23;;;;;;;28.33;13.10;;;;;;;;;;4906843;28;20740;-70
2023/01/18 09:22:49;;;;;;;20.43;10.30;;;;;;;;;;4934745;29;20054;-68
2023/01/18 09:25:17;;;;;;;22.23;12.67;;;;;;;;;;4929833;28;20050;-69
2023/01/18 09:27:43;;;;;;;31.17;13.80;;;;;;;;;;4949199;28;20067;-70
2023/01/18 09:30:09;;;;;;;26.47;12.03;;;;;;;;;;4933155;29;20536;-70
2023/01/18 09:32:35;;;;;;;32.37;12.37;;;;;;;;;;4936270;28;20102;-68
2023/01/18 09:35:01;;;;;;;23.80;10.97;;;;;;;;;;4950647;28;20367;-69
2023/01/18 09:37:26;;;;;;;27.47;13.57;;;;;;;;;;4931470;28;20039;-70
2023/01/18 09:39:52;;;;;;;26.80;11.97;;;;;;;;;;4923971;28;20034;-71
2023/01/18 09:42:23;;;;;;;25.23;12.33;;;;;;;;;;4938044;29;20533;-70
2023/01/18 09:44:50;;;;;;;24.48;12.43;;;;;;;;;;4920914;29;20058;-71
2023/01/18 09:47:24;;;;;;;35.47;13.10;;;;;;;;;;4946280;28;20042;-69
2023/01/18 09:49:57;;;;;;;31.13;12.37;;;;;;;;;;4974141;28;20466;-72
2023/01/18 09:52:31;;;;;;;27.27;11.90;;;;;;;;;;4939071;28;20060;-70
2023/01/18 09:55:05;;;;;;;25.47;12.23;;;;;;;;;;4920540;29;20031;-70
2023/01/18 09:57:40;;;;;;;22.67;12.37;;;;;;;;;;4935093;28;20485;-73
2023/01/18 10:00:23;;;;;;;24.77;13.50;;;;;;;;;;4964269;28;20511;-72
2023/01/18 10:02:52;;;;;;;30.37;12.97;;;;;;;;;;4918912;28;20038;-73
2023/01/18 10:05:24;;;;;;;24.40;12.37;;;;;;;;;;4935004;29;20075;-72
2023/01/18 10:08:01;;;;;;;26.00;12.87;;;;;;;;;;4941749;28;20035;-77
2023/01/18 10:10:29;;;;;;;25.47;12.23;;;;;;;;;;4942333;28;20057;-75
2023/01/18 10:13:14;;;;;;;25.77;12.13;;;;;;;;;;4940735;28;20389;-73
2023/01/18 10:15:40;;;;;;;25.37;12.80;;;;;;;;;;4958160;28;20038;-74
2023/01/18 10:18:07;;;;;;;22.10;12.97;;;;;;;;;;4938840;29;20422;-72
2023/01/18 10:20:39;;;;;;;25.07;12.40;;;;;;;;;;4954503;28;20050;-73
2023/01/18 10:23:11;;;;;;;28.23;13.50;;;;;;;;;;4921056;29;20067;-72
2023/01/18 10:25:52;;;;;;;26.27;13.13;;;;;;;;;;4940275;28;20042;-72
2023/01/18 10:28:27;;;;;;;26.83;12.80;;;;;;;;;;4957154;28;20043;-73
2023/01/18 10:30:56;;;;;;;29.27;13.33;;;;;;;;;;4912016;29;20505;-73
2023/01/18 10:33:23;;;;;;;23.83;12.33;;;;;;;;;;4929631;28;20390;-74
2023/01/18 10:35:51;;;;;;;29.40;14.30;;;;;;;;;;4970364;28;20043;-74
2023/01/18 10:38:18;;;;;;;22.37;11.97;;;;;;;;;;4934956;29;20112;-77
2023/01/18 10:40:48;;;;;;;26.70;13.70;;;;;;;;;;4939723;28;20062;-74
2023/01/18 10:43:19;;;;;;;25.97;13.07;;;;;;;;;;4957201;28;20035;-74
2023/01/18 10:45:44;;;;;;;30.13;13.67;;;;;;;;;;4943110;28;20046;-74
2023/01/18 10:48:13;;;;;;;25.50;14.13;;;;;;;;;;4933788;28;20046;-74
2023/01/18 10:50:41;;;;;;;32.63;13.93;;;;;;;;;;4939158;28;20116;-74
2023/01/18 10:53:30;;;;;;;31.10;14.07;;;;;;;;;;4936508;28;20039;-74
2023/01/18 10:56:02;;;;;;;31.13;13.50;;;;;;;;;;4930360;29;20717;-75
2023/01/18 10:58:40;;;;;;;30.97;13.80;;;;;;;;;;4933273;29;20066;-72
2023/01/18 11:01:12;;;;;;;30.27;15.13;;;;;;;;;;4956659;29;20035;-71
2023/01/18 11:03:44;;;;;;;32.30;15.03;;;;;;;;;;4960537;28;20051;-71
2023/01/18 11:06:09;;;;;;;37.93;15.23;;;;;;;;;;4956784;29;20035;-70
2023/01/18 11:08:35;;;;;;;39.07;15.27;;;;;;;;;;4931603;28;20831;-70
2023/01/18 11:11:05;;;;;;;33.50;13.87;;;;;;;;;;4925137;28;20506;-71
2023/01/18 11:13:38;;;;;;;32.95;15.30;;;;;;;;;;4954240;28;20114;-71
2023/01/18 11:16:07;;;;;;;26.73;14.93;;;;;;;;;;4925106;28;20046;-69
2023/01/18 11:18:33;;;;;;;36.63;15.33;;;;;;;;;;4935762;28;20034;-71
2023/01/18 11:20:59;;;;;;;30.67;14.17;;;;;;;;;;4956916;28;20134;-68
2023/01/18 11:23:28;;;;;;;27.43;15.10;;;;;;;;;;4955503;28;20469;-71
2023/01/18 11:26:04;;;;;;;27.13;14.70;;;;;;;;;;4932883;29;20047;-70
2023/01/18 11:28:30;;;;;;;30.30;14.87;;;;;;;;;;4937368;28;20046;-70
2023/01/18 11:31:12;;;;;;;26.43;13.80;;;;;;;;;;4921613;29;20039;-69
2023/01/18 11:33:52;;;;;;;31.40;14.10;;;;;;;;;;4925538;28;20062;-70
2023/01/18 11:36:19;;;;;;;27.53;14.03;;;;;;;;;;4941868;28;20046;-70
2023/01/18 11:38:45;;;;;;;23.83;13.30;;;;;;;;;;4941794;28;20475;-67
2023/01/18 11:41:13;;;;;;;26.93;13.90;;;;;;;;;;4942516;28;20039;-68
2023/01/18 11:43:43;;;;;;;29.43;13.23;;;;;;;;;;4924444;28;20046;-68
2023/01/18 11:46:20;;;;;;;33.17;14.03;;;;;;;;;;4912727;28;20118;-68
2023/01/18 11:48:50;;;;;;;28.63;13.13;;;;;;;;;;4937359;28;20042;-70
2023/01/18 11:51:23;;;;;;;26.17;13.63;;;;;;;;;;4933954;29;20182;-68
2023/01/18 11:54:01;;;;;;;21.83;12.43;;;;;;;;;;4933201;28;20113;-68
2023/01/18 11:56:27;;;;;;;26.03;12.07;;;;;;;;;;4921622;28;20034;-68
2023/01/18 11:58:53;;;;;;;22.20;11.07;;;;;;;;;;4908117;29;20051;-72
2023/01/18 12:01:28;;;;;;;20.57;10.87;;;;;;;;;;4949111;28;20381;-72
2023/01/18 12:03:57;;;;;;;24.17;10.63;;;;;;;;;;4921364;29;20043;-71
2023/01/18 12:06:28;;;;;;;20.23;10.83;;;;;;;;;;4952791;28;20031;-72
2023/01/18 12:09:02;;;;;;;22.30;11.15;;;;;;;;;;4924501;28;20042;-72
2023/01/18 12:11:43;;;;;;;30.83;11.37;;;;;;;;;;4924030;28;20141;-72
2023/01/18 12:14:27;;;;;;;27.10;10.93;;;;;;;;;;4924093;28;20445;-71
2023/01/18 12:17:12;;;;;;;20.50;10.47;;;;;;;;;;4923267;28;20042;-69
2023/01/18 12:19:49;;;;;;;24.73;10.87;;;;;;;;;;4937937;28;20575;-70
2023/01/18 12:22:28;;;;;;;25.60;11.23;;;;;;;;;;4923465;28;20129;-72
2023/01/18 12:24:57;;;;;;;20.20;9.80;;;;;;;;;;4937705;28;20046;-73
2023/01/18 12:27:41;;;;;;;28.17;10.40;;;;;;;;;;4938444;28;20046;-72
2023/01/18 12:30:26;;;;;;;23.10;10.53;;;;;;;;;;4934873;29;20040;-72
2023/01/18 12:33:03;;;;;;;29.27;10.80;;;;;;;;;;4920191;29;20114;-72
2023/01/18 12:35:32;;;;;;;19.90;9.70;;;;;;;;;;4936067;29;20043;-72
2023/01/18 12:38:05;;;;;;;18.77;10.15;;;;;;;;;;4935389;29;20059;-72
2023/01/18 12:40:38;;;;;;;22.53;10.07;;;;;;;;;;4936046;29;20137;-72
2023/01/18 12:43:15;;;;;;;20.43;9.97;;;;;;;;;;4935941;29;20085;-72
2023/01/18 12:45:45;;;;;;;21.10;10.70;;;;;;;;;;4936153;29;20070;-72
2023/01/18 12:48:27;;;;;;;20.23;9.13;;;;;;;;;;4935672;29;20509;-72
2023/01/18 12:50:57;;;;;;;16.13;8.83;;;;;;;;;;4936243;29;20066;-72
2023/01/18 12:53:34;;;;;;;21.45;10.20;;;;;;;;;;4936094;29;20070;-73
2023/01/18 12:56:10;;;;;;;20.50;9.70;;;;;;;;;;4936096;29;20117;-72
2023/01/18 12:58:39;;;;;;;24.17;9.93;;;;;;;;;;4935163;29;20134;-72
2023/01/18 13:01:06;;;;;;;27.73;10.23;;;;;;;;;;4951951;29;20039;-72
2023/01/18 13:03:36;;;;;;;22.43;10.50;;;;;;;;;;4951802;29;20401;-72
2023/01/18 13:06:04;;;;;;;26.67;9.90;;;;;;;;;;4936155;29;20489;-72
2023/01/18 13:08:38;;;;;;;21.10;10.17;;;;;;;;;;4933298;29;20043;-73
2023/01/18 13:11:09;;;;;;;19.30;9.90;;;;;;;;;;4919298;29;20043;-72
2023/01/18 13:13:42;;;;;;;22.50;10.90;;;;;;;;;;4951064;29;20039;-72
2023/01/18 13:16:20;;;;;;;28.97;11.50;;;;;;;;;;4951987;29;20058;-72
2023/01/18 13:18:53;;;;;;;30.57;11.47;;;;;;;;;;4935054;29;20154;-73
2023/01/18 13:21:34;;;;;;;21.37;9.83;;;;;;;;;;4935660;29;20114;-73
2023/01/18 13:24:35;;;;;;;22.33;10.70;;;;;;;;;;4951564;29;20055;-73
2023/01/18 13:27:09;;;;;;;22.73;11.18;;;;;;;;;;4920412;28;20074;-73
2023/01/18 13:29:36;;;;;;;26.17;10.17;;;;;;;;;;4922634;28;20445;-72
2023/01/18 13:32:02;;;;;;;23.63;11.00;;;;;;;;;;4954929;28;20043;-73
2023/01/18 13:34:31;;;;;;;24.13;9.70;;;;;;;;;;4922990;28;20039;-73
2023/01/18 13:37:01;;;;;;;23.23;9.87;;;;;;;;;;4938849;28;20039;-73
2023/01/18 13:39:30;;;;;;;19.80;10.27;;;;;;;;;;4954062;28;20034;-72
2023/01/18 13:42:00;;;;;;;22.73;9.97;;;;;;;;;;4923146;28;20047;-73
2023/01/18 13:44:31;;;;;;;21.13;10.67;;;;;;;;;;4938414;28;20055;-72
2023/01/18 13:46:58;;;;;;;24.20;10.93;;;;;;;;;;4923163;28;20085;-72
2023/01/18 13:49:36;;;;;;;27.17;10.43;;;;;;;;;;4953770;28;20430;-73
2023/01/18 13:52:03;;;;;;;29.43;11.73;;;;;;;;;;4939635;28;20061;-71
2023/01/18 13:54:28;;;;;;;24.67;11.70;;;;;;;;;;4954213;28;20039;-71
2023/01/18 13:57:03;;;;;;;22.60;10.73;;;;;;;;;;4938123;28;20141;-72
2023/01/18 13:59:36;;;;;;;25.93;10.30;;;;;;;;;;4936520;28;20060;-71
2023/01/18 14:02:20;;;;;;;23.07;10.63;;;;;;;;;;4912834;29;20026;-72
2023/01/18 14:04:57;;;;;;;27.43;10.77;;;;;;;;;;4934607;28;20062;-73
2023/01/18 14:07:24;;;;;;;17.57;9.60;;;;;;;;;;4935305;28;20039;-73
2023/01/18 14:09:50;;;;;;;20.47;9.50;;;;;;;;;;4933834;29;20035;-72
2023/01/18 14:12:35;;;;;;;19.83;9.30;;;;;;;;;;4931328;29;20031;-73
2023/01/18 14:15:01;;;;;;;19.33;9.10;;;;;;;;;;4909419;28;20035;-73
2023/01/18 14:17:31;;;;;;;23.07;8.40;;;;;;;;;;4922755;28;20035;-73
2023/01/18 14:20:06;;;;;;;20.83;9.83;;;;;;;;;;4938026;28;20039;-73
2023/01/18 14:22:50;;;;;;;19.90;9.20;;;;;;;;;;4924113;28;20473;-72
2023/01/18 14:25:31;;;;;;;18.23;8.73;;;;;;;;;;4942028;28;20046;-72
2023/01/18 14:28:09;;;;;;;17.10;8.77;;;;;;;;;;4926325;28;20082;-72
2023/01/18 14:30:36;;;;;;;21.57;9.20;;;;;;;;;;4941092;28;20039;-73
2023/01/18 14:33:01;;;;;;;16.20;8.63;;;;;;;;;;4941748;28;20046;-73
2023/01/18 14:35:29;;;;;;;27.93;10.07;;;;;;;;;;4925464;28;20043;-73
2023/01/18 14:38:05;;;;;;;25.17;10.03;;;;;;;;;;4925621;28;20081;-73
2023/01/18 14:40:32;;;;;;;19.70;9.13;;;;;;;;;;4940991;28;20432;-73
2023/01/18 14:43:04;;;;;;;18.47;9.63;;;;;;;;;;4925279;28;20038;-73
2023/01/18 14:45:31;;;;;;;17.80;9.30;;;;;;;;;;4957268;28;20067;-73
2023/01/18 14:48:01;;;;;;;19.07;8.70;;;;;;;;;;4925631;28;20097;-73
2023/01/18 14:50:31;;;;;;;18.00;7.93;;;;;;;;;;4924578;28;20138;-73
2023/01/18 14:52:58;;;;;;;17.70;8.20;;;;;;;;;;4937627;28;20034;-73
2023/01/18 14:55:29;;;;;;;16.73;7.83;;;;;;;;;;4944938;28;20038;-73
2023/01/18 14:58:10;;;;;;;16.38;8.35;;;;;;;;;;4976863;28;20062;-73
2023/01/18 15:00:50;;;;;;;19.70;7.70;;;;;;;;;;4960048;28;20137;-73
2023/01/18 15:03:25;;;;;;;17.57;7.23;;;;;;;;;;4944338;28;20064;-73